sensor_id;sensor_type;location;lat;lon;timestamp;pressure;altitude;pressure_sealevel;temperature;humidity
23261;BME280;11799;47.740;-3.390;2024-02-14T00:01:22;101878.63;;;12.21;100.00
23261;BME280;11799;47.740;-3.390;2024-02-14T00:03:49;101872.38;;;12.22;100.00
23261;BME280;11799;47.740;-3.390;2024-02-14T00:06:14;101867.31;;;12.19;100.00
23261;BME280;11799;47.740;-3.390;2024-02-14T00:08:40;101866.34;;;12.20;100.00
23261;BME280;11799;47.740;-3.390;2024-02-14T00:11:06;101872.50;;;12.20;100.00
23261;BME280;11799;47.740;-3.390;2024-02-14T00:13:32;101879.50;;;12.21;100.00
23261;BME280;11799;47.740;-3.390;2024-02-14T00:16:00;101885.75;;;12.20;100.00
23261;BME280;11799;47.740;-3.390;2024-02-14T00:18:26;101888.38;;;12.20;100.00
23261;BME280;11799;47.740;-3.390;2024-02-14T00:20:51;101884.78;;;12.21;100.00
23261;BME280;11799;47.740;-3.390;2024-02-14T00:23:17;101879.59;;;12.20;100.00
23261;BME280;11799;47.740;-3.390;2024-02-14T00:25:43;101863.69;;;12.20;100.00
23261;BME280;11799;47.740;-3.390;2024-02-14T00:28:08;101875.16;;;12.20;100.00
23261;BME280;11799;47.740;-3.390;2024-02-14T00:30:34;101878.75;;;12.19;100.00
23261;BME280;11799;47.740;-3.390;2024-02-14T00:33:00;101879.59;;;12.20;100.00
23261;BME280;11799;47.740;-3.390;2024-02-14T00:35:25;101880.44;;;12.20;100.00
23261;BME280;11799;47.740;-3.390;2024-02-14T00:37:51;101889.53;;;12.16;100.00
23261;BME280;11799;47.740;-3.390;2024-02-14T00:40:17;101886.59;;;12.21;100.00
23261;BME280;11799;47.740;-3.390;2024-02-14T00:42:43;101893.88;;;12.17;100.00
23261;BME280;11799;47.740;-3.390;2024-02-14T00:45:09;101905.13;;;12.21;100.00
23261;BME280;11799;47.740;-3.390;2024-02-14T00:47:35;101900.88;;;12.18;100.00
23261;BME280;11799;47.740;-3.390;2024-02-14T00:50:02;101905.22;;;12.19;100.00
23261;BME280;11799;47.740;-3.390;2024-02-14T00:52:28;101910.53;;;12.19;100.00
23261;BME280;11799;47.740;-3.390;2024-02-14T00:54:54;101911.38;;;12.20;100.00
23261;BME280;11799;47.740;-3.390;2024-02-14T00:57:20;101907.97;;;12.18;100.00
23261;BME280;11799;47.740;-3.390;2024-02-14T00:59:46;101907.03;;;12.19;100.00
23261;BME280;11799;47.740;-3.390;2024-02-14T01:02:13;101899.09;;;12.19;100.00
23261;BME280;11799;47.740;-3.390;2024-02-14T01:04:38;101907.88;;;12.19;100.00
23261;BME280;11799;47.740;-3.390;2024-02-14T01:07:04;101888.50;;;12.19;100.00
23261;BME280;11799;47.740;-3.390;2024-02-14T01:09:29;101898.13;;;12.20;100.00
23261;BME280;11799;47.740;-3.390;2024-02-14T01:11:55;101896.34;;;12.20;100.00
23261;BME280;11799;47.740;-3.390;2024-02-14T01:14:21;101893.69;;;12.20;100.00
23261;BME280;11799;47.740;-3.390;2024-02-14T01:16:47;101892.94;;;12.18;100.00
23261;BME280;11799;47.740;-3.390;2024-02-14T01:19:13;101892.84;;;12.20;100.00
23261;BME280;11799;47.740;-3.390;2024-02-14T01:21:39;101878.75;;;12.19;100.00
23261;BME280;11799;47.740;-3.390;2024-02-14T01:24:05;101876.09;;;12.19;100.00
23261;BME280;11799;47.740;-3.390;2024-02-14T01:26:31;101881.41;;;12.19;100.00
23261;BME280;11799;47.740;-3.390;2024-02-14T01:28:59;101876.94;;;12.20;100.00
23261;BME280;11799;47.740;-3.390;2024-02-14T01:31:26;101877.78;;;12.20;100.00
23261;BME280;11799;47.740;-3.390;2024-02-14T01:33:53;101891.03;;;12.20;100.00
23261;BME280;11799;47.740;-3.390;2024-02-14T01:36:18;101879.59;;;12.20;100.00
23261;BME280;11799;47.740;-3.390;2024-02-14T01:38:44;101892.72;;;12.21;100.00
23261;BME280;11799;47.740;-3.390;2024-02-14T01:41:10;101884.16;;;12.18;100.00
23261;BME280;11799;47.740;-3.390;2024-02-14T01:43:36;101885.75;;;12.20;100.00
23261;BME280;11799;47.740;-3.390;2024-02-14T01:46:07;101880.75;;;12.16;100.00
23261;BME280;11799;47.740;-3.390;2024-02-14T01:48:35;101890.09;;;12.21;100.00
23261;BME280;11799;47.740;-3.390;2024-02-14T01:51:03;101892.72;;;12.21;100.00
23261;BME280;11799;47.740;-3.390;2024-02-14T01:53:29;101898.88;;;12.22;100.00
23261;BME280;11799;47.740;-3.390;2024-02-14T01:55:57;101900.69;;;12.21;100.00
23261;BME280;11799;47.740;-3.390;2024-02-14T01:58:24;101899.81;;;12.21;100.00
23261;BME280;11799;47.740;-3.390;2024-02-14T02:00:50;101891.34;;;12.16;100.00
23261;BME280;11799;47.740;-3.390;2024-02-14T02:03:24;101901.63;;;12.20;100.00
23261;BME280;11799;47.740;-3.390;2024-02-14T02:05:51;101899.94;;;12.19;100.00
23261;BME280;11799;47.740;-3.390;2024-02-14T02:08:17;101898.97;;;12.20;100.00
23261;BME280;11799;47.740;-3.390;2024-02-14T02:10:43;101893.69;;;12.20;100.00
23261;BME280;11799;47.740;-3.390;2024-02-14T02:13:09;101885.75;;;12.20;100.00
23261;BME280;11799;47.740;-3.390;2024-02-14T02:15:35;101889.34;;;12.19;100.00
23261;BME280;11799;47.740;-3.390;2024-02-14T02:18:02;101891.97;;;12.19;100.00
23261;BME280;11799;47.740;-3.390;2024-02-14T02:20:30;101894.63;;;12.19;100.00
23261;BME280;11799;47.740;-3.390;2024-02-14T02:22:57;101895.47;;;12.20;100.00
23261;BME280;11799;47.740;-3.390;2024-02-14T02:25:23;101895.47;;;12.20;100.00
23261;BME280;11799;47.740;-3.390;2024-02-14T02:27:52;101883.41;;;12.16;100.00
23261;BME280;11799;47.740;-3.390;2024-02-14T02:30:22;101890.19;;;12.20;100.00
23261;BME280;11799;47.740;-3.390;2024-02-14T02:32:47;101889.22;;;12.21;100.00
23261;BME280;11799;47.740;-3.390;2024-02-14T02:35:13;101883.19;;;12.19;100.00
23261;BME280;11799;47.740;-3.390;2024-02-14T02:37:39;101882.34;;;12.18;100.00
23261;BME280;11799;47.740;-3.390;2024-02-14T02:40:05;101876.09;;;12.19;100.00
23261;BME280;11799;47.740;-3.390;2024-02-14T02:42:30;101870.81;;;12.19;100.00
23261;BME280;11799;47.740;-3.390;2024-02-14T02:44:56;101869.00;;;12.20;100.00
23261;BME280;11799;47.740;-3.390;2024-02-14T02:47:22;101885.84;;;12.19;100.00
23261;BME280;11799;47.740;-3.390;2024-02-14T02:49:47;101886.78;;;12.18;100.00
23261;BME280;11799;47.740;-3.390;2024-02-14T02:52:13;101884.88;;;12.20;100.00
23261;BME280;11799;47.740;-3.390;2024-02-14T02:54:39;101887.53;;;12.20;100.00
23261;BME280;11799;47.740;-3.390;2024-02-14T02:57:12;101878.94;;;12.16;100.00
23261;BME280;11799;47.740;-3.390;2024-02-14T02:59:37;101876.00;;;12.21;100.00
23261;BME280;11799;47.740;-3.390;2024-02-14T03:02:04;101878.63;;;12.21;100.00
23261;BME280;11799;47.740;-3.390;2024-02-14T03:04:33;101869.00;;;12.20;100.00
23261;BME280;11799;47.740;-3.390;2024-02-14T03:06:59;101871.66;;;12.20;100.00
23261;BME280;11799;47.740;-3.390;2024-02-14T03:09:24;101875.16;;;12.20;100.00
23261;BME280;11799;47.740;-3.390;2024-02-14T03:11:51;101874.19;;;12.21;100.00
23261;BME280;11799;47.740;-3.390;2024-02-14T03:14:17;101870.59;;;12.22;100.00
23261;BME280;11799;47.740;-3.390;2024-02-14T03:16:42;101863.59;;;12.21;100.00
23261;BME280;11799;47.740;-3.390;2024-02-14T03:19:08;101869.84;;;12.20;100.00
23261;BME280;11799;47.740;-3.390;2024-02-14T03:21:33;101872.38;;;12.22;100.00
23261;BME280;11799;47.740;-3.390;2024-02-14T03:24:03;101862.75;;;12.21;100.00
23261;BME280;11799;47.740;-3.390;2024-02-14T03:26:31;101859.16;;;12.22;100.00
23261;BME280;11799;47.740;-3.390;2024-02-14T03:29:00;101866.16;;;12.23;100.00
23261;BME280;11799;47.740;-3.390;2024-02-14T03:31:25;101876.63;;;12.24;100.00
23261;BME280;11799;47.740;-3.390;2024-02-14T03:33:51;101876.75;;;12.23;100.00
23261;BME280;11799;47.740;-3.390;2024-02-14T03:36:17;101874.94;;;12.23;100.00
23261;BME280;11799;47.740;-3.390;2024-02-14T03:38:43;101867.00;;;12.23;100.00
23261;BME280;11799;47.740;-3.390;2024-02-14T03:41:12;101868.59;;;12.26;100.00
23261;BME280;11799;47.740;-3.390;2024-02-14T03:43:38;101869.44;;;12.27;100.00
23261;BME280;11799;47.740;-3.390;2024-02-14T03:46:04;101865.94;;;12.26;100.00
23261;BME280;11799;47.740;-3.390;2024-02-14T03:48:30;101854.69;;;12.22;100.00
23261;BME280;11799;47.740;-3.390;2024-02-14T03:50:57;101850.34;;;12.21;100.00
23261;BME280;11799;47.740;-3.390;2024-02-14T03:53:23;101863.59;;;12.21;100.00
23261;BME280;11799;47.740;-3.390;2024-02-14T03:55:48;101856.50;;;12.22;100.00
23261;BME280;11799;47.740;-3.390;2024-02-14T03:58:15;101861.91;;;12.20;100.00
23261;BME280;11799;47.740;-3.390;2024-02-14T04:00:42;101862.84;;;12.19;100.00
23261;BME280;11799;47.740;-3.390;2024-02-14T04:03:12;101859.47;;;12.17;100.00
23261;BME280;11799;47.740;-3.390;2024-02-14T04:05:38;101852.47;;;12.16;100.00
23261;BME280;11799;47.740;-3.390;2024-02-14T04:08:03;101851.63;;;12.16;100.00
23261;BME280;11799;47.740;-3.390;2024-02-14T04:10:29;101859.56;;;12.16;100.00
23261;BME280;11799;47.740;-3.390;2024-02-14T04:12:54;101845.38;;;12.04;100.00
23261;BME280;11799;47.740;-3.390;2024-02-14T04:15:20;101865.91;;;12.13;100.00
23261;BME280;11799;47.740;-3.390;2024-02-14T04:17:45;101875.69;;;12.13;100.00
23261;BME280;11799;47.740;-3.390;2024-02-14T04:20:11;101878.44;;;12.11;100.00
23261;BME280;11799;47.740;-3.390;2024-02-14T04:22:37;101867.09;;;12.09;100.00
23261;BME280;11799;47.740;-3.390;2024-02-14T04:25:02;101871.44;;;12.10;100.00
23261;BME280;11799;47.740;-3.390;2024-02-14T04:27:28;101870.72;;;12.08;100.00
23261;BME280;11799;47.740;-3.390;2024-02-14T04:29:53;101882.03;;;12.10;100.00
23261;BME280;11799;47.740;-3.390;2024-02-14T04:32:20;101885.66;;;12.09;100.00
23261;BME280;11799;47.740;-3.390;2024-02-14T04:34:45;101889.13;;;12.10;100.00
23261;BME280;11799;47.740;-3.390;2024-02-14T04:37:11;101884.69;;;12.10;100.00
23261;BME280;11799;47.740;-3.390;2024-02-14T04:39:39;101878.44;;;12.11;100.00
23261;BME280;11799;47.740;-3.390;2024-02-14T04:42:05;101880.25;;;12.11;100.00
23261;BME280;11799;47.740;-3.390;2024-02-14T04:44:31;101883.63;;;12.13;100.00
23261;BME280;11799;47.740;-3.390;2024-02-14T04:46:57;101890.59;;;12.14;100.00
23261;BME280;11799;47.740;-3.390;2024-02-14T04:49:27;101889.75;;;12.13;100.00
23261;BME280;11799;47.740;-3.390;2024-02-14T04:51:56;101881.09;;;12.11;100.00
23261;BME280;11799;47.740;-3.390;2024-02-14T04:54:22;101878.34;;;12.13;100.00
23261;BME280;11799;47.740;-3.390;2024-02-14T04:56:48;101883.50;;;12.14;100.00
23261;BME280;11799;47.740;-3.390;2024-02-14T04:59:13;101891.59;;;12.13;100.00
23261;BME280;11799;47.740;-3.390;2024-02-14T05:01:39;101887.94;;;12.14;100.00
23261;BME280;11799;47.740;-3.390;2024-02-14T05:04:08;101895.19;;;12.12;100.00
23261;BME280;11799;47.740;-3.390;2024-02-14T05:06:34;101894.94;;;12.15;100.00
23261;BME280;11799;47.740;-3.390;2024-02-14T05:08:59;101893.13;;;12.15;100.00
23261;BME280;11799;47.740;-3.390;2024-02-14T05:11:25;101889.53;;;12.16;100.00
23261;BME280;11799;47.740;-3.390;2024-02-14T05:13:51;101892.19;;;12.16;100.00
23261;BME280;11799;47.740;-3.390;2024-02-14T05:16:20;101896.75;;;12.14;100.00
23261;BME280;11799;47.740;-3.390;2024-02-14T05:18:45;101896.53;;;12.17;100.00
23261;BME280;11799;47.740;-3.390;2024-02-14T05:21:12;101899.09;;;12.19;100.00
23261;BME280;11799;47.740;-3.390;2024-02-14T05:23:37;101899.94;;;12.19;100.00
23261;BME280;11799;47.740;-3.390;2024-02-14T05:26:03;101898.13;;;12.20;100.00
23261;BME280;11799;47.740;-3.390;2024-02-14T05:28:30;101897.28;;;12.19;100.00
23261;BME280;11799;47.740;-3.390;2024-02-14T05:30:56;101885.75;;;12.20;100.00
23261;BME280;11799;47.740;-3.390;2024-02-14T05:33:22;101893.56;;;12.22;100.00
23261;BME280;11799;47.740;-3.390;2024-02-14T05:35:49;101898.88;;;12.22;100.00
23261;BME280;11799;47.740;-3.390;2024-02-14T05:38:15;101898.88;;;12.22;100.00
23261;BME280;11799;47.740;-3.390;2024-02-14T05:40:40;101896.97;;;12.24;100.00
23261;BME280;11799;47.740;-3.390;2024-02-14T05:43:09;101899.63;;;12.24;100.00
23261;BME280;11799;47.740;-3.390;2024-02-14T05:45:35;101903.13;;;12.24;100.00
23261;BME280;11799;47.740;-3.390;2024-02-14T05:48:01;101892.53;;;12.24;100.00
23261;BME280;11799;47.740;-3.390;2024-02-14T05:50:26;101895.19;;;12.24;100.00
23261;BME280;11799;47.740;-3.390;2024-02-14T05:52:52;101895.28;;;12.23;100.00
23261;BME280;11799;47.740;-3.390;2024-02-14T05:55:18;101892.41;;;12.26;100.00
23261;BME280;11799;47.740;-3.390;2024-02-14T05:57:43;101893.38;;;12.25;100.00
23261;BME280;11799;47.740;-3.390;2024-02-14T06:00:09;101901.31;;;12.25;100.00
23261;BME280;11799;47.740;-3.390;2024-02-14T06:02:38;101895.91;;;12.27;100.00
23261;BME280;11799;47.740;-3.390;2024-02-14T06:05:08;101891.47;;;12.27;100.00
23261;BME280;11799;47.740;-3.390;2024-02-14T06:07:37;101889.97;;;12.23;100.00
23261;BME280;11799;47.740;-3.390;2024-02-14T06:10:02;101888.72;;;12.29;100.00
23261;BME280;11799;47.740;-3.390;2024-02-14T06:12:28;101886.06;;;12.29;100.00
23261;BME280;11799;47.740;-3.390;2024-02-14T06:14:55;101881.72;;;12.28;100.00
23261;BME280;11799;47.740;-3.390;2024-02-14T06:17:20;101886.91;;;12.29;100.00
23261;BME280;11799;47.740;-3.390;2024-02-14T06:19:46;101888.72;;;12.29;100.00
23261;BME280;11799;47.740;-3.390;2024-02-14T06:22:12;101877.28;;;12.28;100.00
23261;BME280;11799;47.740;-3.390;2024-02-14T06:24:37;101888.81;;;12.27;100.00
23261;BME280;11799;47.740;-3.390;2024-02-14T06:27:03;101890.63;;;12.27;100.00
23261;BME280;11799;47.740;-3.390;2024-02-14T06:29:29;101893.16;;;12.28;100.00
23261;BME280;11799;47.740;-3.390;2024-02-14T06:31:55;101880.78;;;12.29;100.00
23261;BME280;11799;47.740;-3.390;2024-02-14T06:34:20;101889.66;;;12.28;100.00
23261;BME280;11799;47.740;-3.390;2024-02-14T06:36:47;101887.03;;;12.28;100.00
23261;BME280;11799;47.740;-3.390;2024-02-14T06:39:12;101892.22;;;12.29;100.00
23261;BME280;11799;47.740;-3.390;2024-02-14T06:41:38;101900.91;;;12.31;100.00
23261;BME280;11799;47.740;-3.390;2024-02-14T06:44:04;101892.22;;;12.29;100.00
23261;BME280;11799;47.740;-3.390;2024-02-14T06:46:30;101895.72;;;12.30;100.00
23261;BME280;11799;47.740;-3.390;2024-02-14T06:48:56;101889.66;;;12.28;100.00
23261;BME280;11799;47.740;-3.390;2024-02-14T06:51:22;101895.91;;;12.27;100.00
23261;BME280;11799;47.740;-3.390;2024-02-14T06:53:49;101899.41;;;12.27;100.00
23261;BME280;11799;47.740;-3.390;2024-02-14T06:56:15;101895.28;;;12.23;100.00
23261;BME280;11799;47.740;-3.390;2024-02-14T06:58:40;101894.31;;;12.24;100.00
23261;BME280;11799;47.740;-3.390;2024-02-14T07:01:06;101905.75;;;12.24;100.00
23261;BME280;11799;47.740;-3.390;2024-02-14T07:03:31;101908.31;;;12.26;100.00
23261;BME280;11799;47.740;-3.390;2024-02-14T07:05:57;101903.00;;;12.26;100.00
23261;BME280;11799;47.740;-3.390;2024-02-14T07:08:23;101901.31;;;12.25;100.00
23261;BME280;11799;47.740;-3.390;2024-02-14T07:10:51;101903.97;;;12.25;100.00
23261;BME280;11799;47.740;-3.390;2024-02-14T07:13:16;101914.56;;;12.25;100.00
23261;BME280;11799;47.740;-3.390;2024-02-14T07:15:42;101917.97;;;12.27;100.00
23261;BME280;11799;47.740;-3.390;2024-02-14T07:18:08;101913.50;;;12.28;100.00
23261;BME280;11799;47.740;-3.390;2024-02-14T07:20:35;101911.91;;;12.25;100.00
23261;BME280;11799;47.740;-3.390;2024-02-14T07:23:01;101915.31;;;12.27;100.00
23261;BME280;11799;47.740;-3.390;2024-02-14T07:25:27;101907.34;;;12.27;100.00
23261;BME280;11799;47.740;-3.390;2024-02-14T07:27:52;101902.91;;;12.28;100.00
23261;BME280;11799;47.740;-3.390;2024-02-14T07:30:18;101898.47;;;12.28;100.00
23261;BME280;11799;47.740;-3.390;2024-02-14T07:32:44;101902.81;;;12.29;100.00
23261;BME280;11799;47.740;-3.390;2024-02-14T07:35:10;101895.81;;;12.28;100.00
23261;BME280;11799;47.740;-3.390;2024-02-14T07:37:36;101888.19;;;12.23;100.00
23261;BME280;11799;47.740;-3.390;2024-02-14T07:40:02;101891.38;;;12.29;100.00
23261;BME280;11799;47.740;-3.390;2024-02-14T07:42:28;101896.56;;;12.30;100.00
23261;BME280;11799;47.740;-3.390;2024-02-14T07:44:54;101906.19;;;12.31;100.00
23261;BME280;11799;47.740;-3.390;2024-02-14T07:47:21;101894.75;;;12.31;100.00
23261;BME280;11799;47.740;-3.390;2024-02-14T07:49:47;101906.94;;;12.33;100.00
23261;BME280;11799;47.740;-3.390;2024-02-14T07:52:13;101905.25;;;12.32;100.00
23261;BME280;11799;47.740;-3.390;2024-02-14T07:54:38;101910.44;;;12.34;100.00
23261;BME280;11799;47.740;-3.390;2024-02-14T07:57:04;101914.78;;;12.35;100.00
23261;BME280;11799;47.740;-3.390;2024-02-14T07:59:30;101909.81;;;12.30;100.00
23261;BME280;11799;47.740;-3.390;2024-02-14T08:01:55;101914.88;;;12.33;100.00
23261;BME280;11799;47.740;-3.390;2024-02-14T08:04:23;101919.34;;;12.33;100.00
23261;BME280;11799;47.740;-3.390;2024-02-14T08:06:49;101913.00;;;12.35;100.00
23261;BME280;11799;47.740;-3.390;2024-02-14T08:09:15;101919.97;;;12.36;100.00
23261;BME280;11799;47.740;-3.390;2024-02-14T08:11:41;101921.69;;;12.37;100.00
23261;BME280;11799;47.740;-3.390;2024-02-14T08:14:06;101927.94;;;12.36;100.00
23261;BME280;11799;47.740;-3.390;2024-02-14T08:16:32;101919.97;;;12.36;100.00
23261;BME280;11799;47.740;-3.390;2024-02-14T08:18:58;101921.78;;;12.36;100.00
23261;BME280;11799;47.740;-3.390;2024-02-14T08:21:26;101925.19;;;12.38;100.00
23261;BME280;11799;47.740;-3.390;2024-02-14T08:23:53;101925.06;;;12.39;100.00
23261;BME280;11799;47.740;-3.390;2024-02-14T08:26:19;101929.53;;;12.39;100.00
23261;BME280;11799;47.740;-3.390;2024-02-14T08:28:44;101928.03;;;12.35;100.00
23261;BME280;11799;47.740;-3.390;2024-02-14T08:31:11;101933.03;;;12.39;100.00
23261;BME280;11799;47.740;-3.390;2024-02-14T08:33:37;101940.97;;;12.39;100.00
23261;BME280;11799;47.740;-3.390;2024-02-14T08:36:04;101934.81;;;12.39;100.00
23261;BME280;11799;47.740;-3.390;2024-02-14T08:38:30;101941.81;;;12.40;100.00
23261;BME280;11799;47.740;-3.390;2024-02-14T08:40:55;101938.31;;;12.39;100.00
23261;BME280;11799;47.740;-3.390;2024-02-14T08:43:22;101929.63;;;12.37;100.00
23261;BME280;11799;47.740;-3.390;2024-02-14T08:45:49;101940.88;;;12.41;100.00
23261;BME280;11799;47.740;-3.390;2024-02-14T08:48:17;101945.31;;;12.40;100.00
23261;BME280;11799;47.740;-3.390;2024-02-14T08:50:42;101933.88;;;12.40;100.00
23261;BME280;11799;47.740;-3.390;2024-02-14T08:53:08;101942.66;;;12.40;100.00
23261;BME280;11799;47.740;-3.390;2024-02-14T08:55:35;101938.22;;;12.41;100.00
23261;BME280;11799;47.740;-3.390;2024-02-14T08:58:01;101944.47;;;12.40;100.00
23261;BME280;11799;47.740;-3.390;2024-02-14T09:00:27;101952.31;;;12.41;100.00
23261;BME280;11799;47.740;-3.390;2024-02-14T09:02:53;101952.31;;;12.41;100.00
23261;BME280;11799;47.740;-3.390;2024-02-14T09:05:18;101947.00;;;12.41;100.00
23261;BME280;11799;47.740;-3.390;2024-02-14T09:07:44;101954.00;;;12.42;100.00
23261;BME280;11799;47.740;-3.390;2024-02-14T09:10:10;101956.56;;;12.44;100.00
23261;BME280;11799;47.740;-3.390;2024-02-14T09:12:38;101955.72;;;12.43;100.00
23261;BME280;11799;47.740;-3.390;2024-02-14T09:15:05;101960.16;;;12.43;100.00
23261;BME280;11799;47.740;-3.390;2024-02-14T09:17:31;101958.56;;;12.40;100.00
23261;BME280;11799;47.740;-3.390;2024-02-14T09:19:56;101962.16;;;12.39;100.00
23261;BME280;11799;47.740;-3.390;2024-02-14T09:22:22;101957.16;;;12.35;100.00
23261;BME280;11799;47.740;-3.390;2024-02-14T09:24:48;101965.66;;;12.40;100.00
23261;BME280;11799;47.740;-3.390;2024-02-14T09:27:14;101965.66;;;12.40;100.00
23261;BME280;11799;47.740;-3.390;2024-02-14T09:29:39;101964.72;;;12.41;100.00
23261;BME280;11799;47.740;-3.390;2024-02-14T09:32:05;101972.56;;;12.42;100.00
23261;BME280;11799;47.740;-3.390;2024-02-14T09:34:30;101971.69;;;12.42;100.00
23261;BME280;11799;47.740;-3.390;2024-02-14T09:36:56;101977.00;;;12.42;100.00
23261;BME280;11799;47.740;-3.390;2024-02-14T09:39:24;101969.91;;;12.42;100.00
23261;BME280;11799;47.740;-3.390;2024-02-14T09:41:56;101978.06;;;12.39;100.00
23261;BME280;11799;47.740;-3.390;2024-02-14T09:44:27;101973.59;;;12.40;100.00
23261;BME280;11799;47.740;-3.390;2024-02-14T09:46:54;101970.97;;;12.40;100.00
23261;BME280;11799;47.740;-3.390;2024-02-14T09:49:21;101977.09;;;12.40;100.00
23261;BME280;11799;47.740;-3.390;2024-02-14T09:51:48;101981.56;;;12.40;100.00
23261;BME280;11799;47.740;-3.390;2024-02-14T09:54:17;101980.72;;;12.39;100.00
23261;BME280;11799;47.740;-3.390;2024-02-14T09:56:52;101986.00;;;12.39;100.00
23261;BME280;11799;47.740;-3.390;2024-02-14T09:59:21;101992.06;;;12.41;100.00
23261;BME280;11799;47.740;-3.390;2024-02-14T10:01:47;101978.16;;;12.38;100.00
23261;BME280;11799;47.740;-3.390;2024-02-14T10:04:14;101989.41;;;12.41;100.00
23261;BME280;11799;47.740;-3.390;2024-02-14T10:06:40;101993.53;;;12.45;100.00
23261;BME280;11799;47.740;-3.390;2024-02-14T10:09:07;101993.44;;;12.47;100.00
23261;BME280;11799;47.740;-3.390;2024-02-14T10:11:33;101981.78;;;12.49;100.00
23261;BME280;11799;47.740;-3.390;2024-02-14T10:13:59;101990.47;;;12.51;100.00
23261;BME280;11799;47.740;-3.390;2024-02-14T10:16:28;101991.13;;;12.55;100.00
23261;BME280;11799;47.740;-3.390;2024-02-14T10:18:54;101982.03;;;12.59;100.00
23261;BME280;11799;47.740;-3.390;2024-02-14T10:21:21;101994.09;;;12.63;100.00
23261;BME280;11799;47.740;-3.390;2024-02-14T10:23:47;101987.84;;;12.64;100.00
23261;BME280;11799;47.740;-3.390;2024-02-14T10:26:17;101990.41;;;12.66;100.00
23261;BME280;11799;47.740;-3.390;2024-02-14T10:28:43;101997.41;;;12.67;100.00
23261;BME280;11799;47.740;-3.390;2024-02-14T10:31:10;102005.16;;;12.70;100.00
23261;BME280;11799;47.740;-3.390;2024-02-14T10:33:36;101997.31;;;12.68;100.00
23261;BME280;11799;47.740;-3.390;2024-02-14T10:36:02;102002.34;;;12.71;100.00
23261;BME280;11799;47.740;-3.390;2024-02-14T10:38:31;101980.19;;;12.72;100.00
23261;BME280;11799;47.740;-3.390;2024-02-14T10:41:00;101988.38;;;12.82;100.00
23261;BME280;11799;47.740;-3.390;2024-02-14T10:43:27;101992.41;;;12.87;100.00
23261;BME280;11799;47.740;-3.390;2024-02-14T10:45:56;101979.78;;;12.91;100.00
23261;BME280;11799;47.740;-3.390;2024-02-14T10:48:24;101983.94;;;12.95;100.00
23261;BME280;11799;47.740;-3.390;2024-02-14T10:50:53;101969.41;;;13.01;100.00
23261;BME280;11799;47.740;-3.390;2024-02-14T10:53:20;101970.88;;;13.05;100.00
23261;BME280;11799;47.740;-3.390;2024-02-14T10:55:49;101963.56;;;13.08;100.00
23261;BME280;11799;47.740;-3.390;2024-02-14T10:58:17;101962.28;;;13.14;100.00
23261;BME280;11799;47.740;-3.390;2024-02-14T11:00:46;101958.59;;;13.16;100.00
23261;BME280;11799;47.740;-3.390;2024-02-14T11:03:12;101965.50;;;13.19;100.00
23261;BME280;11799;47.740;-3.390;2024-02-14T11:05:47;101957.97;;;13.26;100.00
23261;BME280;11799;47.740;-3.390;2024-02-14T11:08:14;101959.28;;;13.31;100.00
23261;BME280;11799;47.740;-3.390;2024-02-14T11:10:40;101951.22;;;13.33;100.00
23261;BME280;11799;47.740;-3.390;2024-02-14T11:13:11;101955.66;;;13.45;100.00
23261;BME280;11799;47.740;-3.390;2024-02-14T11:15:38;101959.34;;;13.55;100.00
23261;BME280;11799;47.740;-3.390;2024-02-14T11:18:06;101956.59;;;13.57;100.00
23261;BME280;11799;47.740;-3.390;2024-02-14T11:20:35;101929.31;;;13.54;100.00
23261;BME280;11799;47.740;-3.390;2024-02-14T11:23:07;101940.72;;;13.68;100.00
23261;BME280;11799;47.740;-3.390;2024-02-14T11:25:37;101944.00;;;13.71;100.00
23261;BME280;11799;47.740;-3.390;2024-02-14T11:28:13;101943.16;;;13.71;100.00
23261;BME280;11799;47.740;-3.390;2024-02-14T11:30:40;101931.81;;;13.69;100.00
23261;BME280;11799;47.740;-3.390;2024-02-14T11:33:13;101929.88;;;13.71;100.00
23261;BME280;11799;47.740;-3.390;2024-02-14T11:35:42;101926.38;;;13.70;100.00
23261;BME280;11799;47.740;-3.390;2024-02-14T11:38:09;101918.75;;;13.66;100.00
23261;BME280;11799;47.740;-3.390;2024-02-14T11:40:38;101920.22;;;13.70;100.00
23261;BME280;11799;47.740;-3.390;2024-02-14T11:43:05;101912.16;;;13.71;100.00
23261;BME280;11799;47.740;-3.390;2024-02-14T11:45:35;101911.41;;;13.69;100.00
23261;BME280;11799;47.740;-3.390;2024-02-14T11:48:04;101918.19;;;13.73;100.00
23261;BME280;11799;47.740;-3.390;2024-02-14T11:50:30;101892.38;;;13.75;100.00
23261;BME280;11799;47.740;-3.390;2024-02-14T11:52:56;101889.97;;;13.72;100.00
23261;BME280;11799;47.740;-3.390;2024-02-14T11:55:27;101899.28;;;13.78;100.00
23261;BME280;11799;47.740;-3.390;2024-02-14T11:57:53;101906.41;;;13.77;100.00
23261;BME280;11799;47.740;-3.390;2024-02-14T12:00:19;101902.28;;;13.73;100.00
23261;BME280;11799;47.740;-3.390;2024-02-14T12:02:45;101892.72;;;13.71;100.00
23261;BME280;11799;47.740;-3.390;2024-02-14T12:05:11;101886.56;;;13.70;100.00
23261;BME280;11799;47.740;-3.390;2024-02-14T12:07:36;101869.13;;;13.55;100.00
23261;BME280;11799;47.740;-3.390;2024-02-14T12:10:02;101869.50;;;13.62;100.00
23261;BME280;11799;47.740;-3.390;2024-02-14T12:12:28;101877.97;;;13.67;100.00
23261;BME280;11799;47.740;-3.390;2024-02-14T12:14:53;101870.25;;;13.64;100.00
23261;BME280;11799;47.740;-3.390;2024-02-14T12:17:19;101873.97;;;13.61;100.00
23261;BME280;11799;47.740;-3.390;2024-02-14T12:19:45;101875.16;;;13.57;100.00
23261;BME280;11799;47.740;-3.390;2024-02-14T12:22:12;101866.56;;;13.53;100.00
23261;BME280;11799;47.740;-3.390;2024-02-14T12:24:46;101852.47;;;13.53;100.00
23261;BME280;11799;47.740;-3.390;2024-02-14T12:27:17;101858.72;;;13.52;100.00